createdAt,value
2024-01-12T00:01:42.448Z,12.98
2024-01-12T00:04:43.783Z,16.05
2024-01-12T00:07:45.998Z,11.48
2024-01-12T00:10:47.536Z,11.90
2024-01-12T00:13:50.860Z,14.20
2024-01-12T00:16:52.186Z,15.05
2024-01-12T00:19:53.523Z,14.40
2024-01-12T00:22:57.272Z,16.65
2024-01-12T00:26:00.647Z,13.15
2024-01-12T00:29:02.152Z,12.00
2024-01-12T00:32:06.283Z,14.95
2024-01-12T00:35:07.689Z,14.30
2024-01-12T00:38:09.194Z,14.60
2024-01-12T00:41:10.598Z,13.30
2024-01-12T00:44:12.018Z,12.35
2024-01-12T00:47:13.399Z,13.82
2024-01-12T00:50:14.950Z,15.07
2024-01-12T00:53:16.330Z,12.77
2024-01-12T00:56:17.749Z,10.50
2024-01-12T00:59:20.259Z,14.55
2024-01-12T01:02:21.622Z,13.77
2024-01-12T01:05:22.946Z,14.82
2024-01-12T01:08:24.316Z,12.82
2024-01-12T01:11:25.745Z,11.60
2024-01-12T01:14:27.685Z,13.50
2024-01-12T01:17:29.697Z,12.95
2024-01-12T01:20:32.330Z,13.02
2024-01-12T01:23:33.701Z,13.30
2024-01-12T01:26:35.056Z,13.45
2024-01-12T01:29:36.395Z,12.98
2024-01-12T01:32:37.880Z,15.43
2024-01-12T01:35:39.340Z,13.23
2024-01-12T01:38:40.704Z,12.93
2024-01-12T01:41:42.190Z,13.77
2024-01-12T01:44:43.618Z,11.65
2024-01-12T01:47:47.048Z,13.52
2024-01-12T01:50:48.984Z,13.82
2024-01-12T01:53:51.089Z,13.82
2024-01-12T01:56:52.798Z,12.43
2024-01-12T01:59:54.704Z,11.65
2024-01-12T02:02:56.556Z,13.70
2024-01-12T02:05:58.580Z,12.57
2024-01-12T02:09:00.953Z,13.27
2024-01-12T02:12:05.297Z,15.82
2024-01-12T02:15:10.162Z,13.38
2024-01-12T02:18:11.639Z,13.95
2024-01-12T02:21:12.971Z,15.65
2024-01-12T02:24:14.372Z,19.15
2024-01-12T02:27:15.681Z,16.20
2024-01-12T02:30:17.235Z,16.48
2024-01-12T02:33:18.610Z,20.40
2024-01-12T02:36:19.964Z,17.27
2024-01-12T02:39:21.262Z,19.10
2024-01-12T02:42:22.544Z,21.27
2024-01-12T02:45:23.922Z,19.95
2024-01-12T02:48:25.362Z,20.02
2024-01-12T02:51:26.701Z,17.88
2024-01-12T02:54:29.099Z,17.35
2024-01-12T02:57:31.039Z,22.95
2024-01-12T03:00:32.723Z,22.63
2024-01-12T03:03:34.195Z,23.20
2024-01-12T03:06:35.729Z,26.10
2024-01-12T03:09:37.141Z,33.97
2024-01-12T03:12:38.458Z,35.00
2024-01-12T03:15:41.077Z,28.05
2024-01-12T03:18:42.511Z,34.22
2024-01-12T03:21:43.925Z,38.83
2024-01-12T03:24:45.200Z,27.58
2024-01-12T03:27:46.520Z,19.98
2024-01-12T03:30:47.985Z,22.15
2024-01-12T03:33:49.438Z,20.95
2024-01-12T03:36:50.865Z,17.10
2024-01-12T03:39:52.143Z,18.17
2024-01-12T03:42:53.468Z,22.55
2024-01-12T03:45:54.811Z,17.10
2024-01-12T03:48:57.335Z,18.70
2024-01-12T03:52:14.290Z,17.27
2024-01-12T03:58:18.751Z,13.38
2024-01-12T04:01:22.938Z,16.42
2024-01-12T04:04:24.523Z,15.60
2024-01-12T04:07:26.126Z,12.60
2024-01-12T04:10:27.516Z,17.10
2024-01-12T04:13:29.201Z,17.25
2024-01-12T04:16:30.480Z,14.35
2024-01-12T04:19:31.822Z,17.45
2024-01-12T04:22:33.166Z,16.65
2024-01-12T04:25:34.433Z,17.77
2024-01-12T04:28:35.741Z,18.35
2024-01-12T04:31:41.425Z,21.38
2024-01-12T04:34:42.847Z,15.23
2024-01-12T04:37:44.211Z,14.40
2024-01-12T04:40:45.532Z,13.98
2024-01-12T04:43:46.822Z,14.52
2024-01-12T04:46:48.237Z,18.38
2024-01-12T04:49:49.634Z,17.20
2024-01-12T04:52:53.138Z,19.98
2024-01-12T04:55:54.475Z,14.88
2024-01-12T04:58:55.818Z,15.65
2024-01-12T05:01:57.132Z,14.60
2024-01-12T05:04:58.431Z,18.42
2024-01-12T05:07:59.761Z,17.85
2024-01-12T05:11:01.214Z,17.10
2024-01-12T05:14:02.498Z,17.90
2024-01-12T05:17:03.849Z,18.17
2024-01-12T05:20:07.782Z,19.55
2024-01-12T05:23:10.639Z,20.30
2024-01-12T05:26:14.760Z,20.20
2024-01-12T05:29:16.393Z,20.75
2024-01-12T05:32:17.898Z,21.27
2024-01-12T05:35:19.297Z,18.27
2024-01-12T05:38:21.116Z,23.73
2024-01-12T05:41:22.498Z,23.90
2024-01-12T05:44:23.823Z,21.13
2024-01-12T05:47:25.293Z,18.08
2024-01-12T05:50:26.741Z,17.13
2024-01-12T05:53:28.102Z,20.52
2024-01-12T05:56:29.533Z,16.65
2024-01-12T05:59:30.991Z,22.13
2024-01-12T06:02:32.506Z,15.57
2024-01-12T06:05:34.054Z,17.65
2024-01-12T06:08:35.518Z,17.65
2024-01-12T06:11:37.005Z,16.65
2024-01-12T06:14:41.187Z,19.65
2024-01-12T06:17:42.640Z,21.33
2024-01-12T06:20:47.091Z,19.38
2024-01-12T06:23:48.475Z,19.30
2024-01-12T06:26:49.824Z,25.98
2024-01-12T06:29:51.176Z,22.77
2024-01-12T06:32:52.534Z,20.63
2024-01-12T06:35:53.903Z,19.20
2024-01-12T06:38:56.883Z,18.67
2024-01-12T06:42:00.012Z,16.45
2024-01-12T06:45:01.794Z,18.23
2024-01-12T06:48:03.434Z,19.52
2024-01-12T06:51:05.033Z,17.60
2024-01-12T06:54:06.471Z,19.45
2024-01-12T06:57:07.893Z,19.70
2024-01-12T07:00:09.386Z,18.55
2024-01-12T07:03:10.958Z,20.77
2024-01-12T07:06:12.578Z,18.77
2024-01-12T07:09:15.316Z,14.90
2024-01-12T07:12:16.700Z,21.55
2024-01-12T07:15:17.957Z,15.32
2024-01-12T07:18:19.433Z,19.88
2024-01-12T07:21:20.959Z,19.15
2024-01-12T07:24:22.284Z,19.60
2024-01-12T07:27:23.635Z,17.80
2024-01-12T07:30:25.086Z,15.80
2024-01-12T07:33:26.689Z,16.05
2024-01-12T07:36:28.688Z,19.75
2024-01-12T07:39:29.985Z,20.17
2024-01-12T07:42:31.260Z,20.10
2024-01-12T07:45:32.671Z,26.67
2024-01-12T07:48:34.243Z,19.08
2024-01-12T07:51:36.052Z,21.23
2024-01-12T07:54:37.425Z,20.30
2024-01-12T07:57:38.710Z,17.55
2024-01-12T08:00:40.086Z,18.88
2024-01-12T08:03:41.793Z,15.32
2024-01-12T08:06:43.185Z,17.55
2024-01-12T08:09:44.558Z,15.23
2024-01-12T08:12:46.264Z,16.67
2024-01-12T08:15:47.607Z,15.45
2024-01-12T08:18:48.968Z,19.05
2024-01-12T08:21:55.622Z,14.90
2024-01-12T08:24:58.189Z,21.90
2024-01-12T08:27:59.634Z,15.40
2024-01-12T08:31:01.063Z,19.52
2024-01-12T08:34:05.012Z,17.95
2024-01-12T08:37:07.933Z,16.27
2024-01-12T08:40:09.407Z,18.55
2024-01-12T08:43:13.146Z,21.63
2024-01-12T08:46:14.623Z,18.38
2024-01-12T08:49:16.105Z,21.83
2024-01-12T08:52:17.448Z,16.90
2024-01-12T08:55:18.764Z,15.45
2024-01-12T08:58:20.332Z,18.58
2024-01-12T09:01:21.807Z,18.92
2024-01-12T09:04:27.095Z,21.77
2024-01-12T09:07:28.622Z,19.40
2024-01-12T09:10:30.137Z,21.33
2024-01-12T09:13:31.426Z,22.05
2024-01-12T09:16:32.775Z,25.38
2024-01-12T09:19:34.135Z,26.73
2024-01-12T09:22:36.123Z,23.13
2024-01-12T09:25:37.476Z,18.92
2024-01-12T09:28:39.054Z,19.30
2024-01-12T09:31:40.377Z,18.38
2024-01-12T09:34:42.414Z,22.77
2024-01-12T09:37:43.831Z,17.52
2024-01-12T09:40:45.144Z,19.70
2024-01-12T09:43:46.919Z,12.45
2024-01-12T09:46:58.321Z,19.20
2024-01-12T09:49:59.708Z,18.75
2024-01-12T09:53:01.074Z,15.45
2024-01-12T09:56:06.693Z,17.42
2024-01-12T09:59:09.744Z,19.95
2024-01-12T10:02:12.895Z,14.80
2024-01-12T10:05:14.205Z,15.68
2024-01-12T10:08:15.627Z,16.23
2024-01-12T10:11:16.951Z,25.48
2024-01-12T10:14:24.391Z,18.95
2024-01-12T10:17:28.305Z,17.73
2024-01-12T10:20:35.708Z,17.67
2024-01-12T10:23:37.103Z,20.88
2024-01-12T10:26:38.651Z,13.85
2024-01-12T10:29:40.072Z,17.48
2024-01-12T10:32:41.610Z,16.20
2024-01-12T10:35:44.724Z,14.95
2024-01-12T10:38:46.862Z,19.38
2024-01-12T10:41:48.739Z,19.20
2024-01-12T10:44:52.123Z,20.42
2024-01-12T10:47:59.537Z,18.27
2024-01-12T10:51:01.374Z,16.80
2024-01-12T10:54:09.437Z,17.20
2024-01-12T10:57:11.171Z,19.08
2024-01-12T11:00:12.887Z,22.77
2024-01-12T11:03:17.634Z,16.60
2024-01-12T11:06:19.837Z,16.90
2024-01-12T11:09:21.381Z,22.10
2024-01-12T11:12:36.576Z,13.75
2024-01-12T11:15:40.153Z,15.68
2024-01-12T11:18:42.705Z,16.60
2024-01-12T11:21:44.281Z,19.65
2024-01-12T11:24:46.017Z,16.90
2024-01-12T11:27:49.890Z,16.20
2024-01-12T11:30:51.500Z,14.70
2024-01-12T11:34:02.407Z,16.38
2024-01-12T11:37:04.346Z,17.15
2024-01-12T11:40:12.715Z,14.18
2024-01-12T11:43:18.469Z,16.98
2024-01-12T11:46:19.949Z,17.15
2024-01-12T11:49:21.525Z,18.70
2024-01-12T11:52:22.956Z,16.27
2024-01-12T11:55:25.022Z,18.35
2024-01-12T11:58:26.331Z,16.40
2024-01-12T12:01:27.674Z,15.88
2024-01-12T12:04:29.078Z,18.48
2024-01-12T12:07:30.633Z,16.48
2024-01-12T12:10:38.065Z,17.10
2024-01-12T12:13:45.150Z,17.98
2024-01-12T12:16:46.914Z,17.23
2024-01-12T12:19:48.361Z,17.60
2024-01-12T12:22:50.845Z,16.27
2024-01-12T12:25:52.284Z,18.60
2024-01-12T12:28:57.153Z,16.10
2024-01-12T12:32:02.314Z,15.30
2024-01-12T12:35:14.188Z,15.73
2024-01-12T12:38:15.532Z,16.25
2024-01-12T12:41:17.864Z,18.73
2024-01-12T12:44:22.013Z,19.10
2024-01-12T12:47:23.367Z,17.20
2024-01-12T12:50:25.460Z,17.17
2024-01-12T12:53:26.880Z,17.70
2024-01-12T12:56:28.281Z,18.15
2024-01-12T12:59:37.123Z,18.08
2024-01-12T13:02:39.163Z,19.05
2024-01-12T13:05:40.895Z,20.33
2024-01-12T13:08:43.480Z,23.27
2024-01-12T13:11:45.067Z,22.48
2024-01-12T13:14:46.352Z,18.10
2024-01-12T13:17:47.848Z,20.00
2024-01-12T13:20:49.673Z,19.45
2024-01-12T13:23:51.320Z,20.10
2024-01-12T13:26:52.660Z,23.52
2024-01-12T13:29:55.979Z,20.98
2024-01-12T13:32:58.412Z,22.63
2024-01-12T13:35:59.912Z,21.63
2024-01-12T13:39:01.389Z,20.63
2024-01-12T13:42:03.034Z,21.90
2024-01-12T13:45:04.734Z,16.77
2024-01-12T13:48:12.053Z,20.30
2024-01-12T13:51:16.568Z,20.27
2024-01-12T13:54:18.003Z,24.65
2024-01-12T13:57:22.124Z,20.83
2024-01-12T14:00:23.488Z,21.55
2024-01-12T14:03:25.046Z,22.15
2024-01-12T14:06:26.978Z,21.20
2024-01-12T14:09:30.089Z,19.63
2024-01-12T14:12:31.724Z,23.48
2024-01-12T14:15:33.189Z,19.42
2024-01-12T14:18:34.798Z,20.20
2024-01-12T14:21:38.351Z,20.30
2024-01-12T14:24:39.672Z,21.80
2024-01-12T14:27:41.059Z,20.50
2024-01-12T14:30:43.148Z,23.90
2024-01-12T14:33:47.053Z,20.65
2024-01-12T14:36:49.020Z,20.58
2024-01-12T14:39:50.860Z,21.90
2024-01-12T14:42:52.377Z,19.38
2024-01-12T14:45:53.736Z,23.75
2024-01-12T14:48:55.421Z,22.27
2024-01-12T14:51:57.478Z,21.02
2024-01-12T14:54:59.461Z,21.02
2024-01-12T14:58:00.956Z,21.50
2024-01-12T15:01:02.320Z,23.08
2024-01-12T15:04:11.081Z,20.67
2024-01-12T15:07:19.910Z,21.52
2024-01-12T15:10:21.494Z,21.70
2024-01-12T15:13:22.817Z,25.77
2024-01-12T15:16:24.178Z,22.48
2024-01-12T15:19:25.669Z,20.05
2024-01-12T15:22:27.077Z,25.88
2024-01-12T15:25:28.437Z,24.63
2024-01-12T15:28:29.953Z,19.88
2024-01-12T15:31:31.464Z,22.52
2024-01-12T15:34:32.992Z,22.60
2024-01-12T15:37:34.498Z,20.85
2024-01-12T15:40:35.834Z,23.90
2024-01-12T15:43:37.138Z,20.67
2024-01-12T15:46:38.451Z,24.52
2024-01-12T15:49:39.834Z,22.20
2024-01-12T15:52:41.288Z,27.17
2024-01-12T15:55:45.483Z,22.85
2024-01-12T15:58:46.943Z,28.85
2024-01-12T16:01:48.579Z,23.73
2024-01-12T16:04:49.923Z,21.38
2024-01-12T16:07:53.358Z,26.13
2024-01-12T16:10:54.858Z,22.40
2024-01-12T16:13:56.224Z,29.20
2024-01-12T16:16:57.550Z,30.38
2024-01-12T16:19:59.033Z,27.17
2024-01-12T16:23:00.392Z,26.23
2024-01-12T16:26:01.732Z,27.13
2024-01-12T16:29:03.080Z,22.95
2024-01-12T16:32:04.724Z,22.83
2024-01-12T16:35:06.392Z,25.20
2024-01-12T16:38:09.968Z,22.90
2024-01-12T16:41:13.849Z,20.58
2024-01-12T16:44:15.260Z,16.30
2024-01-12T16:47:17.112Z,15.57
2024-01-12T16:50:19.477Z,18.85
2024-01-12T16:53:21.869Z,12.38
2024-01-12T16:56:24.352Z,15.10
2024-01-12T16:59:25.766Z,11.18
2024-01-12T17:02:27.211Z,15.52
2024-01-12T17:05:28.718Z,14.50
2024-01-12T17:08:30.154Z,11.30
2024-01-12T17:11:31.740Z,16.75
2024-01-12T17:14:35.943Z,15.70
2024-01-12T17:17:37.443Z,12.15
2024-01-12T17:20:38.922Z,13.65
2024-01-12T17:23:40.344Z,13.55
2024-01-12T17:26:41.816Z,11.32
2024-01-12T17:29:43.124Z,13.27
2024-01-12T17:32:44.768Z,13.02
2024-01-12T17:35:46.608Z,10.50
2024-01-12T17:38:47.995Z,11.63
2024-01-12T17:41:49.510Z,12.40
2024-01-12T17:44:50.854Z,12.05
2024-01-12T17:47:53.387Z,13.52
2024-01-12T17:50:54.986Z,13.98
2024-01-12T17:53:56.371Z,14.02
2024-01-12T17:57:01.099Z,9.18
2024-01-12T18:00:05.764Z,16.13
2024-01-12T18:03:07.421Z,17.77
2024-01-12T18:06:09.009Z,16.27
2024-01-12T18:09:12.502Z,19.60
2024-01-12T18:12:14.937Z,17.88
2024-01-12T18:15:16.556Z,15.73
2024-01-12T18:18:18.192Z,13.52
2024-01-12T18:21:19.630Z,17.08
2024-01-12T18:24:21.039Z,14.98
2024-01-12T18:27:24.014Z,18.25
2024-01-12T18:30:25.561Z,12.63
2024-01-12T18:33:27.086Z,16.77
2024-01-12T18:36:32.215Z,19.77
2024-01-12T18:39:34.756Z,17.13
2024-01-12T18:42:36.098Z,17.73
2024-01-12T18:45:37.997Z,19.17
2024-01-12T18:48:39.493Z,16.13
2024-01-12T18:51:41.013Z,20.13
2024-01-12T18:54:42.361Z,20.80
2024-01-12T18:57:43.711Z,14.77
2024-01-12T19:00:45.241Z,19.95
2024-01-12T19:03:46.706Z,20.50
2024-01-12T19:06:51.056Z,22.55
2024-01-12T19:09:52.451Z,23.13
2024-01-12T19:12:54.055Z,22.83
2024-01-12T19:15:55.380Z,21.23
2024-01-12T19:19:00.141Z,24.05
2024-01-12T19:22:01.630Z,22.27
2024-01-12T19:25:04.077Z,20.33
2024-01-12T19:28:07.766Z,21.88
2024-01-12T19:31:09.174Z,27.30
2024-01-12T19:34:11.362Z,25.33
2024-01-12T19:37:12.844Z,21.08
2024-01-12T19:40:14.420Z,23.77
2024-01-12T19:43:18.724Z,22.77
2024-01-12T19:46:20.154Z,31.10
2024-01-12T19:49:21.597Z,22.58
2024-01-12T19:52:22.959Z,23.23
2024-01-12T19:55:24.249Z,28.10
2024-01-12T19:58:25.582Z,24.52
2024-01-12T20:01:26.925Z,17.35
2024-01-12T20:04:37.995Z,21.73
2024-01-12T20:07:46.603Z,16.52
2024-01-12T20:10:47.923Z,21.05
2024-01-12T20:13:49.296Z,24.15
2024-01-12T20:16:50.598Z,22.75
2024-01-12T20:19:52.194Z,21.70
2024-01-12T20:22:53.541Z,20.23
2024-01-12T20:25:54.845Z,21.73
2024-01-12T20:28:56.160Z,23.92
2024-01-12T20:31:57.488Z,25.52
2024-01-12T20:34:59.207Z,22.13
2024-01-12T20:38:00.644Z,27.10
2024-01-12T20:41:01.968Z,25.52
2024-01-12T20:44:03.319Z,22.00
2024-01-12T20:47:04.887Z,26.73
2024-01-12T20:50:06.418Z,24.35
2024-01-12T20:53:07.784Z,23.08
2024-01-12T20:56:09.113Z,22.38
2024-01-12T20:59:10.449Z,27.20
2024-01-12T21:02:13.528Z,28.27
2024-01-12T21:05:15.818Z,22.60
2024-01-12T21:08:17.216Z,26.42
2024-01-12T21:11:18.675Z,23.55
2024-01-12T21:14:20.002Z,26.08
2024-01-12T21:17:21.315Z,25.15
2024-01-12T21:20:22.655Z,22.95
2024-01-12T21:23:24.020Z,24.63
2024-01-12T21:26:25.371Z,25.70
2024-01-12T21:29:26.682Z,19.08
2024-01-12T21:32:30.928Z,21.52
2024-01-12T21:35:32.353Z,21.98
2024-01-12T21:38:33.705Z,21.27
2024-01-12T21:41:35.821Z,16.70
2024-01-12T21:44:37.255Z,22.60
2024-01-12T21:47:38.744Z,22.83
2024-01-12T21:50:41.241Z,21.05
2024-01-12T21:53:42.919Z,21.73
2024-01-12T21:56:47.164Z,22.88
2024-01-12T21:59:48.568Z,21.60
2024-01-12T22:02:50.010Z,20.63
2024-01-12T22:05:51.540Z,22.42
2024-01-12T22:08:53.023Z,21.45
2024-01-12T22:11:54.518Z,20.35
2024-01-12T22:14:55.934Z,18.27
2024-01-12T22:17:57.362Z,23.15
2024-01-12T22:20:58.893Z,25.05
2024-01-12T22:24:00.307Z,22.27
2024-01-12T22:27:01.683Z,19.52
2024-01-12T22:30:03.887Z,19.15
2024-01-12T22:33:05.520Z,12.55
2024-01-12T22:36:07.034Z,22.80
2024-01-12T22:39:10.076Z,20.65
2024-01-12T22:42:11.692Z,21.17
2024-01-12T22:45:13.166Z,20.83
2024-01-12T22:48:14.711Z,20.02
2024-01-12T22:51:16.192Z,24.23
2024-01-12T22:54:17.609Z,21.80
2024-01-12T22:57:21.629Z,23.58
2024-01-12T23:00:26.793Z,19.88
2024-01-12T23:03:29.749Z,18.17
2024-01-12T23:06:31.201Z,15.05
2024-01-12T23:09:32.513Z,22.17
2024-01-12T23:12:33.787Z,21.98
2024-01-12T23:15:35.077Z,30.60
2024-01-12T23:18:36.488Z,17.60
2024-01-12T23:21:38.203Z,23.55
2024-01-12T23:24:39.548Z,23.23
2024-01-12T23:27:40.951Z,25.42
2024-01-12T23:30:42.416Z,24.40
2024-01-12T23:33:44.010Z,23.70
2024-01-12T23:36:45.903Z,24.92
2024-01-12T23:39:48.478Z,28.55
2024-01-12T23:42:49.826Z,24.90
2024-01-12T23:45:51.213Z,22.70
2024-01-12T23:48:52.669Z,25.25
2024-01-12T23:51:54.030Z,27.15
2024-01-12T23:54:55.338Z,24.85
2024-01-12T23:57:56.749Z,26.10
